createdAt,value
2022-11-14T00:00:02.692Z,1023.67
2022-11-14T00:05:02.929Z,1023.55
2022-11-14T00:10:02.514Z,1023.7
2022-11-14T00:15:03.359Z,1023.66
2022-11-14T00:20:03.028Z,1023.56
2022-11-14T00:25:02.411Z,1023.35
2022-11-14T00:30:03.458Z,1023.38
2022-11-14T00:35:02.989Z,1023.41
2022-11-14T00:40:02.868Z,1023.43
2022-11-14T00:45:03.251Z,1023.41
2022-11-14T00:50:02.769Z,1023.43
2022-11-14T00:55:03.971Z,1023.36
2022-11-14T01:00:03.187Z,1023.3
2022-11-14T01:05:03.232Z,1023.27
2022-11-14T01:10:02.988Z,1023.12
2022-11-14T01:15:03.110Z,1023.1
2022-11-14T01:20:02.821Z,1023.18
2022-11-14T01:25:02.262Z,1022.98
2022-11-14T01:30:16.724Z,1022.84
2022-11-14T01:35:03.223Z,1022.8
2022-11-14T01:40:02.877Z,1022.79
2022-11-14T01:45:02.714Z,1022.75
2022-11-14T01:50:03.057Z,1022.67
2022-11-14T01:55:04.562Z,1022.69
2022-11-14T02:00:02.635Z,1022.48
2022-11-14T02:05:02.546Z,1022.43
2022-11-14T02:10:02.974Z,1022.37
2022-11-14T02:15:03.114Z,1022.14
2022-11-14T02:20:06.059Z,1022.3
2022-11-14T02:25:03.022Z,1022.23
2022-11-14T02:30:03.160Z,1022.19
2022-11-14T02:35:02.719Z,1022.17
2022-11-14T02:40:02.674Z,1022.18
2022-11-14T02:45:03.602Z,1022.1
2022-11-14T02:50:02.535Z,1022.12
2022-11-14T02:55:03.895Z,1022.02
2022-11-14T03:00:02.629Z,1021.99
2022-11-14T03:05:02.633Z,1021.86
2022-11-14T03:10:03.241Z,1021.83
2022-11-14T03:15:02.674Z,1021.87
2022-11-14T03:20:02.963Z,1021.92
2022-11-14T03:25:02.362Z,1021.84
2022-11-14T03:30:03.214Z,1021.76
2022-11-14T03:35:02.879Z,1021.75
2022-11-14T03:40:02.516Z,1021.71
2022-11-14T03:45:02.996Z,1021.8
2022-11-14T03:50:03.298Z,1021.73
2022-11-14T03:55:04.176Z,1021.67
2022-11-14T04:00:03.354Z,1021.66
2022-11-14T04:05:02.750Z,1021.69
2022-11-14T04:10:03.127Z,1021.64
2022-11-14T04:15:02.561Z,1021.6
2022-11-14T04:20:02.556Z,1021.55
2022-11-14T04:25:03.188Z,1021.5
2022-11-14T04:30:03.254Z,1021.47
2022-11-14T04:35:03.090Z,1021.36
2022-11-14T04:40:02.723Z,1021.36
2022-11-14T04:45:03.308Z,1021.43
2022-11-14T04:50:03.290Z,1021.22
2022-11-14T04:55:04.594Z,1021.26
2022-11-14T05:00:02.867Z,1021.11
2022-11-14T05:05:02.554Z,1021.07
2022-11-14T05:10:03.192Z,1020.94
2022-11-14T05:15:03.322Z,1020.91
2022-11-14T05:20:02.802Z,1021
2022-11-14T05:25:02.675Z,1020.91
2022-11-14T05:30:03.386Z,1020.88
2022-11-14T05:35:03.224Z,1020.8
2022-11-14T05:40:02.610Z,1020.72
2022-11-14T05:45:02.882Z,1020.6
2022-11-14T05:50:02.834Z,1020.68
2022-11-14T05:55:03.969Z,1020.67
2022-11-14T06:00:03.425Z,1020.71
2022-11-14T06:05:03.130Z,1020.85
2022-11-14T06:10:03.309Z,1020.91
2022-11-14T06:15:02.756Z,1020.88
2022-11-14T06:20:02.860Z,1020.95
2022-11-14T06:25:02.555Z,1021.05
2022-11-14T06:30:03.244Z,1020.86
2022-11-14T06:35:03.262Z,1020.79
2022-11-14T06:40:02.708Z,1020.77
2022-11-14T06:45:02.585Z,1020.88
2022-11-14T06:50:03.486Z,1020.74
2022-11-14T06:55:04.051Z,1020.75
2022-11-14T07:00:02.755Z,1020.82
2022-11-14T07:05:02.622Z,1020.94
2022-11-14T07:10:03.068Z,1020.95
2022-11-14T07:15:02.909Z,1020.9
2022-11-14T07:20:02.658Z,1020.78
2022-11-14T07:25:02.465Z,1020.74
2022-11-14T07:30:03.310Z,1020.87
2022-11-14T07:35:03.725Z,1020.91
2022-11-14T07:40:02.641Z,1020.85
2022-11-14T07:45:02.642Z,1020.82
2022-11-14T07:50:03.210Z,1020.84
2022-11-14T07:55:04.349Z,1020.84
2022-11-14T08:00:02.940Z,1020.69
2022-11-14T08:05:02.262Z,1020.67
2022-11-14T08:10:03.254Z,1020.63
2022-11-14T08:15:03.229Z,1020.69
2022-11-14T08:20:03.067Z,1020.52
2022-11-14T08:25:02.866Z,1020.46
2022-11-14T08:30:03.244Z,1020.49
2022-11-14T08:35:03.144Z,1020.53
2022-11-14T08:40:02.897Z,1020.49
2022-11-14T08:45:02.792Z,1020.52
2022-11-14T08:50:03.596Z,1020.45
2022-11-14T08:55:04.209Z,1020.46
2022-11-14T09:00:02.974Z,1020.53
2022-11-14T09:05:02.675Z,1020.38
2022-11-14T09:10:02.362Z,1020.4
2022-11-14T09:15:03.260Z,1020.28
2022-11-14T09:20:02.962Z,1020.39
2022-11-14T09:25:02.840Z,1020.29
2022-11-14T09:30:02.720Z,1020.33
2022-11-14T09:35:03.113Z,1020.31
2022-11-14T09:40:03.203Z,1020.21
2022-11-14T09:45:02.942Z,1020.17
2022-11-14T09:50:02.633Z,1019.87
2022-11-14T09:55:03.635Z,1019.98
2022-11-14T10:00:03.015Z,1019.83
2022-11-14T10:05:03.039Z,1019.9
2022-11-14T10:10:02.531Z,1019.83
2022-11-14T10:15:03.555Z,1019.82
2022-11-14T10:20:03.652Z,1019.98
2022-11-14T10:25:03.333Z,1019.82
2022-11-14T10:30:03.169Z,1019.89
2022-11-14T10:35:02.653Z,1019.86
2022-11-14T10:40:02.548Z,1019.8
2022-11-14T10:45:03.162Z,1019.63
2022-11-14T10:50:02.772Z,1019.63
2022-11-14T10:55:03.827Z,1019.67
2022-11-14T11:00:03.299Z,1019.62
2022-11-14T11:05:02.794Z,1019.4
2022-11-14T11:10:02.961Z,1019.53
2022-11-14T11:15:02.576Z,1019.72
2022-11-14T11:20:08.035Z,1019.53
2022-11-14T11:25:02.771Z,1019.56
2022-11-14T11:30:02.417Z,1019.4
2022-11-14T11:35:03.490Z,1019.35
2022-11-14T11:40:02.974Z,1019.37
2022-11-14T11:45:02.583Z,1019.26
2022-11-14T11:50:02.684Z,1019.33
2022-11-14T11:55:04.604Z,1019.25
2022-11-14T12:00:02.834Z,1019.18
2022-11-14T12:05:02.450Z,1019.23
2022-11-14T12:10:10.067Z,1019.15
2022-11-14T12:15:03.274Z,1019.12
2022-11-14T12:20:02.829Z,1019.16
2022-11-14T12:25:02.554Z,1019.18
2022-11-14T12:30:03.176Z,1019.04
2022-11-14T12:35:02.924Z,1019.05
2022-11-14T12:40:03.146Z,1019.06
2022-11-14T12:45:02.687Z,1018.99
2022-11-14T12:50:03.385Z,1019.07
2022-11-14T12:55:03.604Z,1018.96
2022-11-14T13:00:02.954Z,1018.84
2022-11-14T13:05:03.361Z,1018.81
2022-11-14T13:10:02.999Z,1018.88
2022-11-14T13:15:02.777Z,1018.87
2022-11-14T13:20:02.468Z,1018.85
2022-11-14T13:25:03.004Z,1018.76
2022-11-14T13:30:03.184Z,1018.68
2022-11-14T13:35:02.743Z,1018.69
2022-11-14T13:40:02.495Z,1018.75
2022-11-14T13:45:03.079Z,1018.74
2022-11-14T13:50:02.573Z,1018.69
2022-11-14T13:55:03.947Z,1018.53
2022-11-14T14:00:03.120Z,1018.51
2022-11-14T14:05:02.653Z,1018.5
2022-11-14T14:10:02.845Z,1018.54
2022-11-14T14:15:03.450Z,1018.5
2022-11-14T14:20:03.149Z,1018.33
2022-11-14T14:25:02.710Z,1018.29
2022-11-14T14:30:02.379Z,1018.21
2022-11-14T14:35:03.535Z,1018.3
2022-11-14T14:40:03.111Z,1018.29
2022-11-14T14:45:03.116Z,1018.3
2022-11-14T14:50:02.788Z,1018.23
2022-11-14T14:55:04.595Z,1018.14
2022-11-14T15:00:03.583Z,1018.04
2022-11-14T15:05:03.137Z,1018
2022-11-14T15:10:02.596Z,1018.08
2022-11-14T15:15:02.516Z,1018.14
2022-11-14T15:20:03.112Z,1018.09
2022-11-14T15:25:03.352Z,1018.2
2022-11-14T15:30:02.812Z,1018.28
2022-11-14T15:35:02.360Z,1018.34
2022-11-14T15:40:03.567Z,1018.18
2022-11-14T15:45:03.293Z,1018.06
2022-11-14T15:50:02.964Z,1017.94
2022-11-14T15:55:04.671Z,1017.87
2022-11-14T16:00:02.937Z,1017.93
2022-11-14T16:05:02.862Z,1018.03
2022-11-14T16:10:02.636Z,1018.04
2022-11-14T16:15:03.197Z,1018.01
2022-11-14T16:20:03.451Z,1018.07
2022-11-14T16:25:03.393Z,1018.11
2022-11-14T16:30:03.064Z,1018.11
2022-11-14T16:35:02.825Z,1018.05
2022-11-14T16:40:03.101Z,1017.97
2022-11-14T16:45:03.332Z,1018.05
2022-11-14T16:50:02.786Z,1018.05
2022-11-14T16:55:03.916Z,1018.07
2022-11-14T17:00:03.448Z,1017.97
2022-11-14T17:05:02.744Z,1017.9
2022-11-14T17:10:03.292Z,1017.93
2022-11-14T17:15:02.896Z,1017.91
2022-11-14T17:20:03.192Z,1017.81
2022-11-14T17:25:02.651Z,1017.86
2022-11-14T17:30:03.548Z,1017.9
2022-11-14T17:35:03.053Z,1017.99
2022-11-14T17:40:02.612Z,1017.91
2022-11-14T17:45:02.592Z,1017.9
2022-11-14T17:50:03.289Z,1017.81
2022-11-14T17:55:04.298Z,1017.75
2022-11-14T18:00:03.519Z,1017.72
2022-11-14T18:05:02.615Z,1017.8
2022-11-14T18:10:02.935Z,1017.7
2022-11-14T18:15:03.532Z,1017.69
2022-11-14T18:20:03.235Z,1017.65
2022-11-14T18:25:08.132Z,1017.57
2022-11-14T18:30:42.453Z,1017.47
2022-11-14T18:35:03.077Z,1017.48
2022-11-14T18:40:02.714Z,1017.51
2022-11-14T18:45:02.334Z,1017.42
2022-11-14T18:50:03.410Z,1017.52
2022-11-14T18:55:04.209Z,1017.38
2022-11-14T19:00:02.670Z,1017.39
2022-11-14T19:05:03.441Z,1017.28
2022-11-14T19:10:03.186Z,1017.3
2022-11-14T19:15:02.651Z,1017.18
2022-11-14T19:20:02.698Z,1017.34
2022-11-14T19:25:03.087Z,1017.37
2022-11-14T19:30:03.241Z,1017.37
2022-11-14T19:35:02.980Z,1017.42
2022-11-14T19:40:02.360Z,1017.41
2022-11-14T19:45:03.439Z,1017.44
2022-11-14T19:50:03.213Z,1017.39
2022-11-14T19:55:04.272Z,1017.41
2022-11-14T20:00:02.544Z,1017.38
2022-11-14T20:05:02.995Z,1017.38
2022-11-14T20:10:03.026Z,1017.26
2022-11-14T20:15:03.054Z,1017.24
2022-11-14T20:20:02.553Z,1017.34
2022-11-14T20:25:03.432Z,1017.2
2022-11-14T20:30:03.200Z,1017.21
2022-11-14T20:35:03.041Z,1017.3
2022-11-14T20:40:02.494Z,1017.24
2022-11-14T20:45:03.449Z,1017.13
2022-11-14T20:50:03.285Z,1017.11
2022-11-14T20:55:11.700Z,1017.07
2022-11-14T21:00:02.989Z,1017.07
2022-11-14T21:05:02.384Z,1017.12
2022-11-14T21:10:03.418Z,1017.08
2022-11-14T21:15:03.278Z,1017.12
2022-11-14T21:20:02.781Z,1017.05
2022-11-14T21:25:02.621Z,1016.93
2022-11-14T21:30:03.093Z,1016.86
2022-11-14T21:35:10.153Z,1016.86
2022-11-14T21:40:03.012Z,1016.78
2022-11-14T21:45:02.521Z,1016.81
2022-11-14T21:50:03.414Z,1016.62
2022-11-14T21:55:04.084Z,1016.61
2022-11-14T22:00:02.915Z,1016.69
2022-11-14T22:05:02.322Z,1016.69
2022-11-14T22:10:03.287Z,1016.76
2022-11-14T22:15:03.341Z,1016.79
2022-11-14T22:20:02.721Z,1016.78
2022-11-14T22:25:02.612Z,1016.74
2022-11-14T22:30:03.151Z,1016.8
2022-11-14T22:35:03.116Z,1016.69
2022-11-14T22:40:03.085Z,1016.8
2022-11-14T22:45:03.398Z,1016.68
2022-11-14T22:50:03.195Z,1016.67
2022-11-14T22:55:04.017Z,1016.64
2022-11-14T23:00:02.857Z,1016.55
2022-11-14T23:05:03.209Z,1016.61
2022-11-14T23:10:02.453Z,1016.65
2022-11-14T23:15:03.530Z,1016.48
2022-11-14T23:20:03.272Z,1016.61
2022-11-14T23:25:02.879Z,1016.49
2022-11-14T23:30:02.632Z,1016.51
2022-11-14T23:35:02.333Z,1016.46
2022-11-14T23:40:03.409Z,1016.32
2022-11-14T23:45:03.196Z,1016.36
2022-11-14T23:50:02.782Z,1016.45
2022-11-14T23:55:03.997Z,1016.39
